createdAt,value
2022-10-19T00:01:22.274Z,19.73
2022-10-19T00:03:52.429Z,21.23
2022-10-19T00:06:27.975Z,18.13
2022-10-19T00:08:59.402Z,31.10
2022-10-19T00:11:27.074Z,39.80
2022-10-19T00:13:55.426Z,21.10
2022-10-19T00:16:23.849Z,25.77
2022-10-19T00:18:50.809Z,19.05
2022-10-19T00:21:19.163Z,20.65
2022-10-19T00:23:46.271Z,35.63
2022-10-19T00:26:13.393Z,18.20
2022-10-19T00:28:40.986Z,13.10
2022-10-19T00:31:13.852Z,20.80
2022-10-19T00:33:41.215Z,17.58
2022-10-19T00:36:20.894Z,17.67
2022-10-19T00:38:47.954Z,25.40
2022-10-19T00:41:15.219Z,18.00
2022-10-19T00:44:07.516Z,15.57
2022-10-19T00:46:37.172Z,29.23
2022-10-19T00:49:10.047Z,21.95
2022-10-19T00:51:40.525Z,32.20
2022-10-19T00:54:08.133Z,22.60
2022-10-19T00:56:35.481Z,29.10
2022-10-19T00:59:04.123Z,18.08
2022-10-19T01:01:31.782Z,19.50
2022-10-19T01:03:58.791Z,20.27
2022-10-19T01:06:25.502Z,19.83
2022-10-19T01:08:52.366Z,24.98
2022-10-19T01:11:42.433Z,15.45
2022-10-19T01:14:24.566Z,17.60
2022-10-19T01:16:57.430Z,16.73
2022-10-19T01:19:51.636Z,22.20
2022-10-19T01:22:43.042Z,21.80
2022-10-19T01:25:31.096Z,17.17
2022-10-19T01:28:04.281Z,22.23
2022-10-19T01:30:43.175Z,17.00
2022-10-19T01:33:42.512Z,27.55
2022-10-19T01:36:24.279Z,71.28
2022-10-19T01:38:55.917Z,33.90
2022-10-19T01:41:41.945Z,60.78
2022-10-19T01:44:16.611Z,33.85
2022-10-19T01:47:03.249Z,18.52
2022-10-19T01:49:39.665Z,18.02
2022-10-19T01:52:09.406Z,16.92
2022-10-19T01:54:44.978Z,15.50
2022-10-19T01:57:14.051Z,16.58
2022-10-19T01:59:41.101Z,18.27
2022-10-19T02:02:09.669Z,15.23
2022-10-19T02:04:37.581Z,13.85
2022-10-19T02:07:04.719Z,21.05
2022-10-19T02:09:31.539Z,14.60
2022-10-19T02:12:01.410Z,15.13
2022-10-19T02:14:33.226Z,18.45
2022-10-19T02:17:05.567Z,16.95
2022-10-19T02:19:32.253Z,17.33
2022-10-19T02:21:59.110Z,17.20
2022-10-19T02:24:25.870Z,16.50
2022-10-19T02:26:53.169Z,19.02
2022-10-19T02:29:19.998Z,24.42
2022-10-19T02:31:46.697Z,21.95
2022-10-19T02:34:13.966Z,22.15
2022-10-19T02:36:40.898Z,23.58
2022-10-19T02:39:08.001Z,28.40
2022-10-19T02:41:38.440Z,22.55
2022-10-19T02:44:15.619Z,20.15
2022-10-19T02:46:48.263Z,23.08
2022-10-19T02:49:15.449Z,23.20
2022-10-19T02:52:00.541Z,27.65
2022-10-19T02:54:27.845Z,21.85
2022-10-19T02:56:55.056Z,17.92
2022-10-19T02:59:21.842Z,25.88
2022-10-19T03:01:48.543Z,25.88
2022-10-19T03:04:15.276Z,20.90
2022-10-19T03:06:41.963Z,22.25
2022-10-19T03:09:09.074Z,23.90
2022-10-19T03:11:35.750Z,22.05
2022-10-19T03:14:02.486Z,21.90
2022-10-19T03:16:29.193Z,23.42
2022-10-19T03:18:55.818Z,22.02
2022-10-19T03:21:22.514Z,18.98
2022-10-19T03:23:49.245Z,22.45
2022-10-19T03:26:17.653Z,22.10
2022-10-19T03:28:44.851Z,13.98
2022-10-19T03:31:12.089Z,17.40
2022-10-19T03:33:38.757Z,17.38
2022-10-19T03:36:27.347Z,24.27
2022-10-19T03:38:58.648Z,16.63
2022-10-19T03:41:30.902Z,15.02
2022-10-19T03:43:57.974Z,15.02
2022-10-19T03:46:24.653Z,17.85
2022-10-19T03:48:51.434Z,18.95
2022-10-19T03:51:20.975Z,15.98
2022-10-19T03:53:48.394Z,18.35
2022-10-19T03:56:17.506Z,14.85
2022-10-19T03:58:45.607Z,13.38
2022-10-19T04:01:15.250Z,15.27
2022-10-19T04:03:42.111Z,12.55
2022-10-19T04:06:15.829Z,12.20
2022-10-19T04:08:45.808Z,13.25
2022-10-19T04:11:14.203Z,12.32
2022-10-19T04:13:41.305Z,12.25
2022-10-19T04:16:08.282Z,10.70
2022-10-19T04:18:35.129Z,11.95
2022-10-19T04:21:04.725Z,12.10
2022-10-19T04:23:33.736Z,10.23
2022-10-19T04:26:06.827Z,11.32
2022-10-19T04:28:34.471Z,13.15
2022-10-19T04:31:05.410Z,11.15
2022-10-19T04:33:33.077Z,7.45
2022-10-19T04:36:05.071Z,10.38
2022-10-19T04:38:32.708Z,10.73
2022-10-19T04:41:20.379Z,11.15
2022-10-19T04:43:47.539Z,10.82
2022-10-19T04:46:16.364Z,9.82
2022-10-19T04:48:43.793Z,10.00
2022-10-19T04:51:11.285Z,11.60
2022-10-19T04:53:39.822Z,10.95
2022-10-19T04:56:08.929Z,12.60
2022-10-19T04:58:35.785Z,10.80
2022-10-19T05:01:13.783Z,11.60
2022-10-19T05:03:40.653Z,14.10
2022-10-19T05:06:08.139Z,13.70
2022-10-19T05:08:35.874Z,17.27
2022-10-19T05:11:07.854Z,14.20
2022-10-19T05:13:34.952Z,15.18
2022-10-19T05:16:03.571Z,11.23
2022-10-19T05:18:30.222Z,13.68
2022-10-19T05:21:06.796Z,17.10
2022-10-19T05:23:34.297Z,12.93
2022-10-19T05:26:04.942Z,13.40
2022-10-19T05:28:32.435Z,15.07
2022-10-19T05:31:13.963Z,16.67
2022-10-19T05:33:41.545Z,14.57
2022-10-19T05:36:15.354Z,15.50
2022-10-19T05:38:42.994Z,17.00
2022-10-19T05:41:10.231Z,14.57
2022-10-19T05:43:36.974Z,16.45
2022-10-19T05:46:09.008Z,20.45
2022-10-19T05:48:36.010Z,13.32
2022-10-19T05:51:05.291Z,16.15
2022-10-19T05:53:32.708Z,15.73
2022-10-19T05:55:59.425Z,12.82
2022-10-19T05:58:26.185Z,17.70
2022-10-19T06:00:54.881Z,16.50
2022-10-19T06:03:22.029Z,16.15
2022-10-19T06:05:52.586Z,17.30
2022-10-19T06:08:20.521Z,14.27
2022-10-19T06:10:48.351Z,14.40
2022-10-19T06:13:16.154Z,17.92
2022-10-19T06:15:42.818Z,17.88
2022-10-19T06:18:11.243Z,15.65
2022-10-19T06:20:39.339Z,15.32
2022-10-19T06:23:06.662Z,15.07
2022-10-19T06:25:34.010Z,14.23
2022-10-19T06:28:01.326Z,17.20
2022-10-19T06:30:28.672Z,14.77
2022-10-19T06:32:55.549Z,16.75
2022-10-19T06:35:22.443Z,16.98
2022-10-19T06:37:49.435Z,17.73
2022-10-19T06:40:16.433Z,18.00
2022-10-19T06:42:43.210Z,17.35
2022-10-19T06:45:10.721Z,19.10
2022-10-19T06:47:37.889Z,18.17
2022-10-19T06:50:06.184Z,15.68
2022-10-19T06:52:34.230Z,17.55
2022-10-19T06:55:01.399Z,16.08
2022-10-19T06:57:28.682Z,17.50
2022-10-19T06:59:55.558Z,14.75
2022-10-19T07:02:22.249Z,15.73
2022-10-19T07:04:48.935Z,17.23
2022-10-19T07:07:15.623Z,17.55
2022-10-19T07:09:42.277Z,17.63
2022-10-19T07:12:10.934Z,17.98
2022-10-19T07:14:39.555Z,16.45
2022-10-19T07:17:07.163Z,16.67
2022-10-19T07:19:33.948Z,14.70
2022-10-19T07:22:00.708Z,19.70
2022-10-19T07:24:27.385Z,20.60
2022-10-19T07:26:54.229Z,18.50
2022-10-19T07:29:21.120Z,22.27
2022-10-19T07:31:47.980Z,16.02
2022-10-19T07:34:14.752Z,14.30
2022-10-19T07:36:45.201Z,16.52
2022-10-19T07:39:13.633Z,16.50
2022-10-19T07:41:41.061Z,16.08
2022-10-19T07:44:09.108Z,19.20
2022-10-19T07:46:38.570Z,16.80
2022-10-19T07:49:08.544Z,14.75
2022-10-19T07:51:35.717Z,16.27
2022-10-19T07:54:02.614Z,14.00
2022-10-19T07:56:29.776Z,12.38
2022-10-19T07:58:58.257Z,18.10
2022-10-19T08:01:27.317Z,15.20
2022-10-19T08:06:41.598Z,13.65
2022-10-19T08:09:08.401Z,15.52
2022-10-19T08:11:35.624Z,14.82
2022-10-19T08:14:03.141Z,18.20
2022-10-19T08:16:41.701Z,14.13
2022-10-19T08:19:13.353Z,14.75
2022-10-19T08:21:43.197Z,14.13
2022-10-19T08:24:11.161Z,12.82
2022-10-19T08:26:38.950Z,13.32
2022-10-19T08:29:10.708Z,16.00
2022-10-19T08:31:37.430Z,13.68
2022-10-19T08:34:04.568Z,15.10
2022-10-19T08:36:32.537Z,13.15
2022-10-19T08:38:59.314Z,13.00
2022-10-19T08:41:41.277Z,15.45
2022-10-19T08:44:26.153Z,16.25
2022-10-19T08:47:08.269Z,16.55
2022-10-19T08:49:35.925Z,15.30
2022-10-19T08:52:34.883Z,15.88
2022-10-19T08:55:15.047Z,13.50
2022-10-19T08:58:17.575Z,18.23
2022-10-19T09:01:11.208Z,15.60
2022-10-19T09:03:56.378Z,15.40
2022-10-19T09:06:30.660Z,13.13
2022-10-19T09:08:57.992Z,18.85
2022-10-19T09:11:28.164Z,14.13
2022-10-19T09:14:36.370Z,11.60
2022-10-19T09:17:10.937Z,14.07
2022-10-19T09:19:37.913Z,15.18
2022-10-19T09:22:08.386Z,13.68
2022-10-19T09:24:42.693Z,16.02
2022-10-19T09:27:39.213Z,13.82
2022-10-19T09:30:15.822Z,16.08
2022-10-19T09:32:42.988Z,16.60
2022-10-19T09:35:28.235Z,13.00
2022-10-19T09:37:55.219Z,14.02
2022-10-19T09:40:27.329Z,16.83
2022-10-19T09:42:58.157Z,13.87
2022-10-19T09:45:40.734Z,19.15
2022-10-19T09:48:28.181Z,18.00
2022-10-19T09:51:00.567Z,13.43
2022-10-19T09:53:28.448Z,17.98
2022-10-19T09:56:00.720Z,11.88
2022-10-19T09:58:32.869Z,13.45
2022-10-19T10:01:02.000Z,13.68
2022-10-19T10:03:40.738Z,13.82
2022-10-19T10:06:14.314Z,15.05
2022-10-19T10:08:57.776Z,11.55
2022-10-19T10:11:28.682Z,16.23
2022-10-19T10:13:56.389Z,12.75
2022-10-19T10:16:24.680Z,11.75
2022-10-19T10:19:06.195Z,14.88
2022-10-19T10:21:36.367Z,12.18
2022-10-19T10:24:16.907Z,14.43
2022-10-19T10:26:46.013Z,14.80
2022-10-19T10:29:20.136Z,14.40
2022-10-19T10:31:55.147Z,12.45
2022-10-19T10:34:45.589Z,8.93
2022-10-19T10:37:20.468Z,11.25
2022-10-19T10:39:51.634Z,9.57
2022-10-19T10:42:20.422Z,8.90
2022-10-19T10:44:52.108Z,14.70
2022-10-19T10:47:22.987Z,12.43
2022-10-19T10:50:02.683Z,9.60
2022-10-19T10:52:34.505Z,13.40
2022-10-19T10:55:04.482Z,10.25
2022-10-19T10:57:34.790Z,12.32
2022-10-19T11:00:06.016Z,10.57
2022-10-19T11:02:58.675Z,11.85
2022-10-19T11:05:37.552Z,10.63
2022-10-19T11:08:12.971Z,10.38
2022-10-19T11:10:44.147Z,9.90
2022-10-19T11:13:33.381Z,10.70
2022-10-19T11:16:10.890Z,12.23
2022-10-19T11:18:45.111Z,10.70
2022-10-19T11:21:17.885Z,11.30
2022-10-19T11:23:56.331Z,12.57
2022-10-19T11:26:47.772Z,8.02
2022-10-19T11:29:29.309Z,7.57
2022-10-19T11:31:56.678Z,8.30
2022-10-19T11:34:48.292Z,7.75
2022-10-19T11:37:23.181Z,8.10
2022-10-19T11:40:00.681Z,7.90
2022-10-19T11:45:18.588Z,13.07
2022-10-19T11:48:06.285Z,8.95
2022-10-19T11:50:38.954Z,8.13
2022-10-19T11:53:30.031Z,8.65
2022-10-19T11:56:03.813Z,12.38
2022-10-19T11:58:52.225Z,9.98
2022-10-19T12:01:29.615Z,9.88
2022-10-19T12:04:17.821Z,10.40
2022-10-19T12:06:59.042Z,11.07
2022-10-19T12:09:34.546Z,10.63
2022-10-19T12:12:07.116Z,12.45
2022-10-19T12:14:38.893Z,10.55
2022-10-19T12:17:09.282Z,12.32
2022-10-19T12:19:43.497Z,12.52
2022-10-19T12:22:16.231Z,12.35
2022-10-19T12:24:43.357Z,14.50
2022-10-19T12:27:14.083Z,12.55
2022-10-19T12:29:43.962Z,11.57
2022-10-19T12:32:13.925Z,9.93
2022-10-19T12:34:48.267Z,10.25
2022-10-19T12:37:21.128Z,9.13
2022-10-19T12:40:12.434Z,11.85
2022-10-19T12:42:48.968Z,11.45
2022-10-19T12:45:30.750Z,13.32
2022-10-19T12:48:12.314Z,14.00
2022-10-19T12:50:58.869Z,17.73
2022-10-19T12:53:36.144Z,15.02
2022-10-19T12:56:15.063Z,12.55
2022-10-19T12:58:46.566Z,11.15
2022-10-19T13:01:21.021Z,13.50
2022-10-19T13:06:22.988Z,13.00
2022-10-19T13:08:52.521Z,12.68
2022-10-19T13:11:19.651Z,14.23
2022-10-19T13:13:56.484Z,14.82
2022-10-19T13:16:33.576Z,14.02
2022-10-19T13:19:03.207Z,12.63
2022-10-19T13:21:52.620Z,13.90
2022-10-19T13:24:26.791Z,12.82
2022-10-19T13:27:02.709Z,16.20
2022-10-19T13:29:41.262Z,13.75
2022-10-19T13:32:33.693Z,14.27
2022-10-19T13:35:34.852Z,15.27
2022-10-19T13:38:20.354Z,14.80
2022-10-19T13:40:49.536Z,16.67
2022-10-19T13:43:21.434Z,13.48
2022-10-19T13:46:04.466Z,9.35
2022-10-19T13:48:38.902Z,13.38
2022-10-19T13:51:39.131Z,11.93
2022-10-19T13:54:31.606Z,13.77
2022-10-19T13:57:04.183Z,11.25
2022-10-19T13:59:32.538Z,13.80
2022-10-19T14:02:29.604Z,12.52
2022-10-19T14:05:02.066Z,10.73
2022-10-19T14:07:57.961Z,13.32
2022-10-19T14:10:32.629Z,14.10
2022-10-19T14:13:00.330Z,15.43
2022-10-19T14:15:28.491Z,11.75
2022-10-19T14:17:55.839Z,14.98
2022-10-19T14:20:36.324Z,12.90
2022-10-19T14:23:20.059Z,11.57
2022-10-19T14:25:51.595Z,13.55
2022-10-19T14:28:18.281Z,11.98
2022-10-19T14:30:45.055Z,17.65
2022-10-19T14:33:14.516Z,16.95
2022-10-19T14:35:44.868Z,11.93
2022-10-19T14:38:20.958Z,14.30
2022-10-19T14:40:47.915Z,12.82
2022-10-19T14:43:24.998Z,11.50
2022-10-19T14:46:07.024Z,16.38
2022-10-19T14:49:03.735Z,10.93
2022-10-19T14:51:35.517Z,10.32
2022-10-19T14:54:23.293Z,12.52
2022-10-19T14:56:56.472Z,11.95
2022-10-19T14:59:26.079Z,13.88
2022-10-19T15:01:55.451Z,9.98
2022-10-19T15:04:25.866Z,13.68
2022-10-19T15:06:53.606Z,11.30
2022-10-19T15:09:37.770Z,11.68
2022-10-19T15:12:16.878Z,9.88
2022-10-19T15:14:44.258Z,11.32
2022-10-19T15:17:27.610Z,10.85
2022-10-19T15:19:56.096Z,10.88
2022-10-19T15:22:37.638Z,11.80
2022-10-19T15:25:06.918Z,12.55
2022-10-19T15:27:35.858Z,10.48
2022-10-19T15:30:07.212Z,11.35
2022-10-19T15:32:37.714Z,13.57
2022-10-19T15:35:27.446Z,15.77
2022-10-19T15:38:02.110Z,11.73
2022-10-19T15:40:37.987Z,12.48
2022-10-19T15:43:44.097Z,11.55
2022-10-19T15:46:13.355Z,10.20
2022-10-19T15:48:51.185Z,11.30
2022-10-19T15:51:23.028Z,11.35
2022-10-19T15:54:00.496Z,16.33
2022-10-19T15:56:29.121Z,14.10
2022-10-19T15:58:57.605Z,15.35
2022-10-19T16:01:26.477Z,11.05
2022-10-19T16:03:53.411Z,10.63
2022-10-19T16:06:21.631Z,13.70
2022-10-19T16:08:48.402Z,12.45
2022-10-19T16:11:16.289Z,12.68
2022-10-19T16:13:42.925Z,12.00
2022-10-19T16:16:12.483Z,11.73
2022-10-19T16:18:39.500Z,13.02
2022-10-19T16:21:06.336Z,12.23
2022-10-19T16:23:37.757Z,16.85
2022-10-19T16:26:07.695Z,14.35
2022-10-19T16:28:34.471Z,12.52
2022-10-19T16:31:01.153Z,14.85
2022-10-19T16:33:27.893Z,15.68
2022-10-19T16:35:54.566Z,14.00
2022-10-19T16:38:21.276Z,13.48
2022-10-19T16:40:48.093Z,13.93
2022-10-19T16:43:14.910Z,14.00
2022-10-19T16:45:44.601Z,15.55
2022-10-19T16:48:14.321Z,20.40
2022-10-19T16:50:40.958Z,17.70
2022-10-19T16:53:12.294Z,17.98
2022-10-19T16:55:40.439Z,26.48
2022-10-19T16:58:07.101Z,19.75
2022-10-19T17:00:33.997Z,17.73
2022-10-19T17:03:00.651Z,19.25
2022-10-19T17:05:27.281Z,24.50
2022-10-19T17:07:53.980Z,18.10
2022-10-19T17:10:20.673Z,26.85
2022-10-19T17:12:47.458Z,19.25
2022-10-19T17:18:03.953Z,21.15
2022-10-19T17:20:32.818Z,22.08
2022-10-19T17:22:59.515Z,27.65
2022-10-19T17:25:26.177Z,24.10
2022-10-19T17:27:52.808Z,24.23
2022-10-19T17:30:19.459Z,25.02
2022-10-19T17:32:46.149Z,21.67
2022-10-19T17:35:12.974Z,25.05
2022-10-19T17:37:39.879Z,23.48
2022-10-19T17:40:07.377Z,22.02
2022-10-19T17:42:36.548Z,21.65
2022-10-19T17:45:03.887Z,20.08
2022-10-19T17:47:30.799Z,19.58
2022-10-19T17:49:57.643Z,22.60
2022-10-19T17:52:24.370Z,24.45
2022-10-19T17:55:11.308Z,25.30
2022-10-19T17:57:38.106Z,24.92
2022-10-19T18:00:07.185Z,22.27
2022-10-19T18:02:39.917Z,26.85
2022-10-19T18:05:07.027Z,28.23
2022-10-19T18:07:33.939Z,23.92
2022-10-19T18:10:00.814Z,27.33
2022-10-19T18:12:27.477Z,25.77
2022-10-19T18:14:54.148Z,24.65
2022-10-19T18:17:24.089Z,28.95
2022-10-19T18:22:21.999Z,27.15
2022-10-19T18:24:49.535Z,27.48
2022-10-19T18:27:16.240Z,26.20
2022-10-19T18:29:43.033Z,23.23
2022-10-19T18:32:09.991Z,26.23
2022-10-19T18:34:36.980Z,23.63
2022-10-19T18:37:03.945Z,22.58
2022-10-19T18:39:30.601Z,22.30
2022-10-19T18:41:57.527Z,29.52
2022-10-19T18:44:26.655Z,26.90
2022-10-19T18:46:55.214Z,28.63
2022-10-19T18:49:24.329Z,27.83
2022-10-19T18:51:55.025Z,28.65
2022-10-19T18:54:23.851Z,30.75
2022-10-19T18:56:50.622Z,29.67
2022-10-19T18:59:18.690Z,29.58
2022-10-19T19:01:45.533Z,30.20
2022-10-19T19:04:12.519Z,26.05
2022-10-19T19:06:39.662Z,29.55
2022-10-19T19:09:10.926Z,24.27
2022-10-19T19:11:40.788Z,27.10
2022-10-19T19:14:12.310Z,26.88
2022-10-19T19:16:39.868Z,32.00
2022-10-19T19:19:07.082Z,31.13
2022-10-19T19:21:35.525Z,31.00
2022-10-19T19:24:04.878Z,29.90
2022-10-19T19:26:34.477Z,36.40
2022-10-19T19:29:02.405Z,32.20
2022-10-19T19:31:29.100Z,28.45
2022-10-19T19:33:56.306Z,35.63
2022-10-19T19:36:23.219Z,33.80
2022-10-19T19:38:51.516Z,33.03
2022-10-19T19:41:18.401Z,32.13
2022-10-19T19:43:45.165Z,33.45
2022-10-19T19:46:16.586Z,31.25
2022-10-19T19:48:45.337Z,34.95
2022-10-19T19:51:14.804Z,31.90
2022-10-19T19:53:41.545Z,30.33
2022-10-19T19:56:09.799Z,35.97
2022-10-19T19:58:36.611Z,32.70
2022-10-19T20:01:14.493Z,38.30
2022-10-19T20:03:42.087Z,33.75
2022-10-19T20:06:09.520Z,34.97
2022-10-19T20:08:36.995Z,30.23
2022-10-19T20:11:10.282Z,35.83
2022-10-19T20:13:37.098Z,34.88
2022-10-19T20:16:12.540Z,37.13
2022-10-19T20:18:44.596Z,35.88
2022-10-19T20:21:11.794Z,32.17
2022-10-19T20:23:38.672Z,36.45
2022-10-19T20:26:05.573Z,39.33
2022-10-19T20:28:33.253Z,35.53
2022-10-19T20:31:02.119Z,32.90
2022-10-19T20:33:30.870Z,36.90
2022-10-19T20:35:57.772Z,35.15
2022-10-19T20:38:25.291Z,33.47
2022-10-19T20:40:52.164Z,31.08
2022-10-19T20:43:19.067Z,32.55
2022-10-19T20:45:45.790Z,33.47
2022-10-19T20:48:12.476Z,39.22
2022-10-19T20:50:40.435Z,40.33
2022-10-19T20:53:07.218Z,33.15
2022-10-19T20:55:34.000Z,33.75
2022-10-19T20:58:00.683Z,34.05
2022-10-19T21:00:27.374Z,34.63
2022-10-19T21:02:54.128Z,38.60
2022-10-19T21:05:20.832Z,35.22
2022-10-19T21:07:47.566Z,33.90
2022-10-19T21:10:14.319Z,38.17
2022-10-19T21:12:41.021Z,35.00
2022-10-19T21:15:08.243Z,35.65
2022-10-19T21:17:35.167Z,31.77
2022-10-19T21:20:01.849Z,38.10
2022-10-19T21:22:28.513Z,39.40
2022-10-19T21:24:55.312Z,38.72
2022-10-19T21:27:22.167Z,33.38
2022-10-19T21:29:48.931Z,36.08
2022-10-19T21:32:15.838Z,40.88
2022-10-19T21:34:42.474Z,35.25
2022-10-19T21:37:09.334Z,36.47
2022-10-19T21:39:36.474Z,34.42
2022-10-19T21:42:03.251Z,36.10
2022-10-19T21:44:29.991Z,44.72
2022-10-19T21:46:56.722Z,40.30
2022-10-19T21:49:23.383Z,33.25
2022-10-19T21:51:53.492Z,37.17
2022-10-19T21:54:24.569Z,35.45
2022-10-19T21:56:51.374Z,37.85
2022-10-19T21:59:18.170Z,37.42
2022-10-19T22:01:44.997Z,29.55
2022-10-19T22:04:14.545Z,41.50
2022-10-19T22:06:41.307Z,41.25
2022-10-19T22:09:10.009Z,38.35
2022-10-19T22:11:36.844Z,38.03
2022-10-19T22:14:04.417Z,39.65
2022-10-19T22:16:32.976Z,40.47
2022-10-19T22:18:59.871Z,33.95
2022-10-19T22:21:29.589Z,39.28
2022-10-19T22:23:58.733Z,47.05
2022-10-19T22:26:27.886Z,37.88
2022-10-19T22:28:55.975Z,38.38
2022-10-19T22:31:23.445Z,37.35
2022-10-19T22:33:50.143Z,36.78
2022-10-19T22:36:16.823Z,37.10
2022-10-19T22:38:43.578Z,40.30
2022-10-19T22:41:10.318Z,35.10
2022-10-19T22:43:37.055Z,36.15
2022-10-19T22:46:03.868Z,35.30
2022-10-19T22:48:30.636Z,36.88
2022-10-19T22:50:57.307Z,35.28
2022-10-19T22:53:24.435Z,30.65
2022-10-19T22:55:51.256Z,33.47
2022-10-19T22:58:18.668Z,33.83
2022-10-19T23:00:45.390Z,35.03
2022-10-19T23:03:12.124Z,35.83
2022-10-19T23:05:38.823Z,35.25
2022-10-19T23:08:05.685Z,34.53
2022-10-19T23:10:32.673Z,33.80
2022-10-19T23:12:59.386Z,32.20
2022-10-19T23:15:26.357Z,33.80
2022-10-19T23:17:53.042Z,36.15
2022-10-19T23:20:19.789Z,34.58
2022-10-19T23:22:46.511Z,37.95
2022-10-19T23:25:13.199Z,32.50
2022-10-19T23:27:40.103Z,29.10
2022-10-19T23:30:07.328Z,34.33
2022-10-19T23:32:34.118Z,32.83
2022-10-19T23:35:00.768Z,35.45
2022-10-19T23:37:27.652Z,30.80
2022-10-19T23:39:54.319Z,35.42
2022-10-19T23:42:21.071Z,36.95
2022-10-19T23:44:48.008Z,35.30
2022-10-19T23:47:14.694Z,28.25
2022-10-19T23:49:41.411Z,34.80
2022-10-19T23:52:08.073Z,31.95
2022-10-19T23:54:34.860Z,32.30
2022-10-19T23:57:01.902Z,31.23
2022-10-19T23:59:31.288Z,36.60
